Time;durP1;ratioP1;P1;durP2;ratioP2;P2;SDS_P1;SDS_P2;PMS_P1;PMS_P2;Temp;Humidity;BMP_temperature;BMP_pressure;BME280_temperature;BME280_humidity;BME280_pressure;Samples;Min_cycle;Max_cycle;Signal;HPM_P1;HPM_P2
2023/11/21 00:00:36;;;;;;;44.05;29.30;;;7.80;99.90;;;;;;5033700;28;20491;-75
2023/11/21 00:03:03;;;;;;;49.22;29.83;;;7.80;99.90;;;;;;5031962;28;20072;-74
2023/11/21 00:05:30;;;;;;;51.05;28.33;;;7.70;99.90;;;;;;5032425;28;20678;-75
2023/11/21 00:07:57;;;;;;;51.75;26.95;;;7.60;99.90;;;;;;5029737;28;20045;-75
2023/11/21 00:10:24;;;;;;;51.15;26.42;;;7.70;99.90;;;;;;5031411;28;20637;-76
2023/11/21 00:12:51;;;;;;;60.88;27.67;;;7.70;99.90;;;;;;5034297;28;20053;-75
2023/11/21 00:15:18;;;;;;;52.72;28.05;;;7.60;99.90;;;;;;5031940;28;20037;-75
2023/11/21 00:17:46;;;;;;;46.88;27.58;;;7.60;99.90;;;;;;5032661;28;20568;-75
2023/11/21 00:20:16;;;;;;;46.05;27.40;;;7.70;99.90;;;;;;5025810;28;20050;-75
2023/11/21 00:22:43;;;;;;;49.13;25.23;;;7.70;99.90;;;;;;5017380;28;20047;-75
2023/11/21 00:25:10;;;;;;;47.33;26.20;;;7.80;99.90;;;;;;5027200;28;20053;-75
2023/11/21 00:27:38;;;;;;;49.20;26.15;;;7.70;99.90;;;;;;5019471;28;20059;-74
2023/11/21 00:30:06;;;;;;;43.17;27.25;;;7.70;99.90;;;;;;5031141;28;20047;-75
2023/11/21 00:32:33;;;;;;;50.38;28.02;;;7.60;99.90;;;;;;5015127;28;20562;-75
2023/11/21 00:35:00;;;;;;;51.78;27.85;;;7.60;99.90;;;;;;5012541;28;20049;-75
2023/11/21 00:37:28;;;;;;;45.85;29.13;;;7.70;99.90;;;;;;5031832;28;20045;-75
2023/11/21 00:39:54;;;;;;;52.22;30.20;;;7.60;99.90;;;;;;5033504;28;20064;-74
2023/11/21 00:42:21;;;;;;;54.05;29.30;;;7.60;99.90;;;;;;5016409;28;20057;-75
2023/11/21 00:44:48;;;;;;;54.10;30.08;;;7.60;99.90;;;;;;5019135;28;20130;-75
2023/11/21 00:47:15;;;;;;;49.67;30.48;;;7.60;99.90;;;;;;5023903;28;20052;-75
2023/11/21 00:49:42;;;;;;;44.08;29.80;;;7.50;99.90;;;;;;5015804;28;20049;-75
2023/11/21 00:52:09;;;;;;;47.80;29.52;;;7.50;99.90;;;;;;5029456;28;20041;-74
2023/11/21 00:54:36;;;;;;;52.22;28.70;;;7.50;99.90;;;;;;5034579;28;20617;-74
2023/11/21 00:57:04;;;;;;;55.20;29.70;;;7.30;99.90;;;;;;5026574;28;20068;-75
2023/11/21 00:59:31;;;;;;;59.63;32.47;;;7.10;99.90;;;;;;5030468;28;21790;-75
2023/11/21 01:02:00;;;;;;;52.47;29.92;;;7.00;99.90;;;;;;5029195;28;20045;-74
2023/11/21 01:04:27;;;;;;;71.15;33.67;;;7.00;99.90;;;;;;5029492;28;20586;-74
2023/11/21 01:06:54;;;;;;;59.03;33.72;;;6.80;99.90;;;;;;5025868;28;20130;-74
2023/11/21 01:09:21;;;;;;;57.00;33.90;;;6.60;99.90;;;;;;5027743;28;20041;-75
2023/11/21 01:11:48;;;;;;;62.92;33.78;;;6.70;99.90;;;;;;5017442;28;20090;-74
2023/11/21 01:14:14;;;;;;;65.25;35.63;;;6.60;99.90;;;;;;5027861;28;21321;-75
2023/11/21 01:16:41;;;;;;;70.20;35.10;;;6.60;99.90;;;;;;5029512;28;20309;-75
2023/11/21 01:19:09;;;;;;;75.95;35.85;;;6.50;99.90;;;;;;5026044;28;20134;-74
2023/11/21 01:21:36;;;;;;;76.93;36.03;;;6.30;99.90;;;;;;5014719;28;20138;-75
2023/11/21 01:24:05;;;;;;;78.55;34.38;;;6.30;99.90;;;;;;5014945;28;20091;-74
2023/11/21 01:26:34;;;;;;;85.30;37.35;;;6.30;99.90;;;;;;5011334;28;20157;-75
2023/11/21 01:29:01;;;;;;;70.03;36.42;;;6.20;99.90;;;;;;5014680;28;20049;-75
2023/11/21 01:31:29;;;;;;;84.13;36.67;;;6.20;99.90;;;;;;5026125;28;20038;-75
2023/11/21 01:33:56;;;;;;;63.60;34.13;;;6.10;99.90;;;;;;5026784;28;20132;-75
2023/11/21 01:36:23;;;;;;;73.95;34.55;;;6.10;99.90;;;;;;5027040;28;20495;-75
2023/11/21 01:38:49;;;;;;;78.40;37.13;;;6.00;99.90;;;;;;5034756;28;20110;-74
2023/11/21 01:41:17;;;;;;;91.20;36.83;;;6.00;99.90;;;;;;5026018;28;20044;-75
2023/11/21 01:43:43;;;;;;;90.43;40.47;;;6.00;99.90;;;;;;5037734;28;20056;-75
2023/11/21 01:46:10;;;;;;;71.32;34.65;;;6.00;99.90;;;;;;5026429;28;20144;-74
2023/11/21 01:48:38;;;;;;;83.88;34.17;;;5.90;99.90;;;;;;5027841;28;20053;-74
2023/11/21 01:51:05;;;;;;;70.43;34.40;;;5.90;99.90;;;;;;5026582;28;20459;-75
2023/11/21 01:53:32;;;;;;;83.43;36.30;;;5.80;99.90;;;;;;5016881;28;20044;-75
2023/11/21 01:55:59;;;;;;;80.15;35.85;;;5.70;99.90;;;;;;5029853;28;20735;-74
2023/11/21 01:58:26;;;;;;;93.43;36.63;;;5.60;99.90;;;;;;5008035;28;20051;-75
2023/11/21 02:00:54;;;;;;;97.53;35.83;;;5.60;99.90;;;;;;5026730;28;20611;-75
2023/11/21 02:03:21;;;;;;;88.65;34.88;;;5.50;99.90;;;;;;5010218;28;20519;-74
2023/11/21 02:05:48;;;;;;;92.13;35.45;;;5.50;99.90;;;;;;5027465;28;20045;-75
2023/11/21 02:08:15;;;;;;;92.72;36.58;;;5.50;99.90;;;;;;5025171;28;20154;-75
2023/11/21 02:10:43;;;;;;;78.20;36.75;;;5.50;99.90;;;;;;5013843;28;20565;-74
2023/11/21 02:13:10;;;;;;;105.93;36.10;;;5.50;99.90;;;;;;5024038;28;20053;-75
2023/11/21 02:15:38;;;;;;;81.03;34.92;;;5.60;99.90;;;;;;5045398;28;20653;-74
2023/11/21 02:18:06;;;;;;;87.68;36.83;;;5.60;99.90;;;;;;5026655;28;20102;-75
2023/11/21 02:20:34;;;;;;;87.95;35.75;;;5.40;99.90;;;;;;5011837;28;20136;-74
2023/11/21 02:23:03;;;;;;;88.75;38.05;;;5.40;99.90;;;;;;5010559;28;20061;-74
2023/11/21 02:25:32;;;;;;;85.57;38.42;;;5.30;99.90;;;;;;5026862;28;20138;-74
2023/11/21 02:28:01;;;;;;;87.03;37.17;;;5.20;99.90;;;;;;5024821;28;20523;-74
2023/11/21 02:30:32;;;;;;;80.18;36.13;;;5.30;99.90;;;;;;5026524;28;20056;-75
2023/11/21 02:33:01;;;;;;;87.57;35.85;;;5.40;99.90;;;;;;5026739;28;20052;-74
2023/11/21 02:35:28;;;;;;;95.30;38.65;;;5.30;99.90;;;;;;5028258;28;20057;-75
2023/11/21 02:37:55;;;;;;;92.88;38.38;;;5.30;99.90;;;;;;5027919;28;20573;-75
2023/11/21 02:40:26;;;;;;;84.63;40.45;;;5.30;99.90;;;;;;5024178;28;20104;-74
2023/11/21 02:42:53;;;;;;;108.93;43.65;;;5.40;99.90;;;;;;5025373;28;20073;-75
2023/11/21 02:45:21;;;;;;;106.43;36.67;;;5.40;99.90;;;;;;5024938;28;20134;-73
2023/11/21 02:47:53;;;;;;;80.43;35.08;;;5.30;99.90;;;;;;5028884;28;20107;-75
2023/11/21 02:50:22;;;;;;;62.67;31.73;;;5.40;99.90;;;;;;5025522;28;20049;-74
2023/11/21 02:52:49;;;;;;;86.80;37.65;;;5.50;99.90;;;;;;5030282;28;20124;-75
2023/11/21 02:55:16;;;;;;;70.35;33.90;;;5.50;99.90;;;;;;4983765;28;1170240;-75
2023/11/21 02:57:43;;;;;;;79.85;36.05;;;5.50;99.90;;;;;;5015497;28;20064;-75
2023/11/21 03:00:12;;;;;;;79.97;34.67;;;5.50;99.90;;;;;;5010391;28;20045;-74
2023/11/21 03:02:39;;;;;;;80.80;36.45;;;5.50;99.90;;;;;;5030121;28;20232;-75
2023/11/21 03:05:08;;;;;;;90.53;34.67;;;5.60;99.90;;;;;;5026421;28;20041;-73
2023/11/21 03:07:40;;;;;;;87.45;35.70;;;5.60;99.90;;;;;;5014659;28;20618;-74
2023/11/21 03:10:11;;;;;;;84.78;35.90;;;5.60;99.90;;;;;;5021657;28;20646;-73
2023/11/21 03:12:39;;;;;;;88.40;35.83;;;5.70;99.90;;;;;;5028296;28;20757;-76
2023/11/21 03:15:07;;;;;;;94.63;36.95;;;5.70;99.90;;;;;;5022972;28;20037;-74
2023/11/21 03:17:34;;;;;;;84.53;33.63;;;5.60;99.90;;;;;;5025785;28;20048;-75
2023/11/21 03:20:03;;;;;;;87.88;34.85;;;5.70;99.90;;;;;;5010374;28;20481;-74
2023/11/21 03:22:30;;;;;;;95.68;36.65;;;5.70;99.90;;;;;;5011691;28;20479;-73
2023/11/21 03:24:58;;;;;;;92.85;37.42;;;5.80;99.90;;;;;;5007796;28;20049;-75
2023/11/21 03:27:25;;;;;;;85.30;34.17;;;5.90;99.90;;;;;;5024397;28;20057;-74
2023/11/21 03:29:53;;;;;;;90.20;33.35;;;5.90;99.90;;;;;;5019556;28;20506;-75
2023/11/21 03:32:19;;;;;;;108.35;38.45;;;6.00;99.90;;;;;;5004335;28;20056;-74
2023/11/21 03:34:55;;;;;;;100.10;35.38;;;5.80;99.90;;;;;;5017749;28;20045;-74
2023/11/21 03:37:22;;;;;;;101.50;35.45;;;5.80;99.90;;;;;;5021889;28;20037;-75
2023/11/21 03:39:49;;;;;;;93.32;35.97;;;5.90;99.90;;;;;;5024703;28;20110;-74
2023/11/21 03:42:16;;;;;;;116.50;39.03;;;6.10;99.90;;;;;;5026401;28;20122;-75
2023/11/21 03:44:43;;;;;;;118.57;39.90;;;6.10;99.90;;;;;;5018851;28;20074;-75
2023/11/21 03:47:10;;;;;;;185.95;49.50;;;6.20;99.90;;;;;;5001981;28;20511;-74
2023/11/21 03:49:37;;;;;;;231.10;54.47;;;6.40;99.90;;;;;;5020575;28;20048;-74
2023/11/21 03:52:05;;;;;;;155.25;39.97;;;6.60;99.90;;;;;;5023803;28;20048;-73
2023/11/21 03:54:31;;;;;;;147.07;41.53;;;6.60;99.90;;;;;;5028717;28;20041;-73
2023/11/21 03:56:59;;;;;;;173.68;44.17;;;6.50;99.90;;;;;;5029724;28;20053;-75
2023/11/21 03:59:26;;;;;;;163.55;45.13;;;6.60;99.90;;;;;;5015909;28;20095;-74
2023/11/21 04:01:56;;;;;;;175.88;47.08;;;6.70;99.90;;;;;;5022057;28;20124;-74
2023/11/21 04:04:23;;;;;;;182.35;47.85;;;6.70;99.90;;;;;;5025543;28;20045;-73
2023/11/21 04:06:51;;;;;;;212.05;52.85;;;6.80;99.90;;;;;;5027278;28;20652;-74
2023/11/21 04:09:19;;;;;;;203.43;53.90;;;6.80;99.90;;;;;;5024288;28;20171;-74
2023/11/21 04:11:46;;;;;;;178.85;47.42;;;6.90;99.90;;;;;;5024411;28;20049;-74
2023/11/21 04:14:13;;;;;;;192.40;52.58;;;7.00;99.90;;;;;;5026138;28;20045;-73
2023/11/21 04:16:40;;;;;;;211.35;52.78;;;7.00;99.90;;;;;;5025999;28;20042;-74
2023/11/21 04:19:10;;;;;;;194.23;53.90;;;7.00;99.90;;;;;;5025041;28;20135;-74
2023/11/21 04:21:38;;;;;;;191.48;51.40;;;7.00;99.90;;;;;;5025095;28;20048;-75
2023/11/21 04:24:06;;;;;;;176.75;50.90;;;7.10;99.90;;;;;;5024986;28;20034;-74
2023/11/21 04:26:33;;;;;;;184.38;50.05;;;7.10;99.90;;;;;;5016143;28;20042;-74
2023/11/21 04:28:59;;;;;;;192.00;56.63;;;7.20;99.90;;;;;;5024008;28;20658;-73
2023/11/21 04:31:26;;;;;;;215.77;54.13;;;7.10;99.90;;;;;;5007845;28;20049;-75
2023/11/21 04:33:53;;;;;;;231.52;58.97;;;7.10;99.90;;;;;;5023889;28;20079;-74
2023/11/21 04:36:20;;;;;;;247.73;60.97;;;7.20;99.90;;;;;;5023009;28;20077;-74
2023/11/21 04:38:46;;;;;;;381.50;74.53;;;7.30;99.90;;;;;;5026254;28;20041;-74
2023/11/21 04:41:13;;;;;;;403.55;76.68;;;7.20;99.90;;;;;;5024798;28;20049;-74
2023/11/21 04:43:40;;;;;;;449.08;79.78;;;7.30;99.90;;;;;;5032493;28;20492;-74
2023/11/21 04:46:07;;;;;;;506.17;81.68;;;7.40;99.90;;;;;;5022989;28;20059;-73
2023/11/21 04:48:33;;;;;;;549.85;90.95;;;7.40;99.90;;;;;;5023746;28;20428;-74
2023/11/21 04:51:00;;;;;;;543.42;84.25;;;7.50;99.90;;;;;;5024618;28;20052;-75
2023/11/21 04:53:27;;;;;;;539.03;85.72;;;7.50;99.90;;;;;;5023136;28;20404;-75
2023/11/21 04:55:54;;;;;;;421.55;75.65;;;7.60;99.90;;;;;;5012907;28;20049;-73
2023/11/21 04:58:21;;;;;;;418.90;75.95;;;7.70;99.90;;;;;;5030195;28;20495;-74
2023/11/21 05:00:49;;;;;;;361.13;76.28;;;7.70;99.90;;;;;;5016255;28;20458;-74
2023/11/21 05:03:16;;;;;;;323.10;72.00;;;7.70;99.90;;;;;;5023163;28;20069;-75
2023/11/21 05:05:43;;;;;;;336.65;77.22;;;7.60;99.90;;;;;;5027322;28;20260;-73
2023/11/21 05:08:10;;;;;;;329.45;72.80;;;7.70;99.90;;;;;;5030097;28;20049;-75
2023/11/21 05:10:39;;;;;;;554.13;88.43;;;7.70;99.90;;;;;;5009301;28;20041;-74
2023/11/21 05:13:10;;;;;;;531.33;85.63;;;7.60;99.90;;;;;;5017341;28;20057;-75
2023/11/21 05:15:39;;;;;;;549.00;84.30;;;7.50;99.90;;;;;;5013351;28;20511;-74
2023/11/21 05:18:06;;;;;;;435.65;80.65;;;7.40;99.90;;;;;;5025633;28;20048;-74
2023/11/21 05:20:33;;;;;;;570.70;90.53;;;7.40;99.90;;;;;;5022833;28;20033;-74
2023/11/21 05:23:00;;;;;;;480.58;83.88;;;7.50;99.90;;;;;;5027313;28;20049;-73
2023/11/21 05:25:27;;;;;;;461.33;85.97;;;7.50;99.90;;;;;;5025567;28;20048;-75
2023/11/21 05:27:59;;;;;;;378.17;77.43;;;7.50;99.90;;;;;;5010064;28;20048;-74
2023/11/21 05:30:26;;;;;;;301.88;71.00;;;7.50;99.90;;;;;;5006649;28;20505;-73
2023/11/21 05:32:53;;;;;;;362.30;74.57;;;7.40;99.90;;;;;;5018134;28;20044;-74
2023/11/21 05:35:21;;;;;;;318.13;72.25;;;7.40;99.90;;;;;;5024501;28;20048;-74
2023/11/21 05:37:48;;;;;;;352.63;73.22;;;7.40;99.90;;;;;;5026840;28;20080;-74
2023/11/21 05:40:15;;;;;;;340.25;70.82;;;7.40;99.90;;;;;;5007304;28;20045;-74
2023/11/21 05:42:42;;;;;;;310.67;69.18;;;7.50;99.90;;;;;;5026665;28;20049;-75
2023/11/21 05:45:10;;;;;;;309.23;69.85;;;7.40;99.90;;;;;;5029686;28;20048;-74
2023/11/21 05:47:40;;;;;;;317.08;67.60;;;7.50;99.90;;;;;;5025212;28;20065;-75
2023/11/21 05:50:12;;;;;;;265.50;65.90;;;7.40;99.90;;;;;;5025784;28;20093;-74
2023/11/21 05:52:42;;;;;;;273.73;67.20;;;7.50;99.90;;;;;;5028412;28;20922;-75
2023/11/21 05:55:08;;;;;;;236.23;65.78;;;7.50;99.90;;;;;;5013368;28;20046;-73
2023/11/21 05:57:40;;;;;;;259.05;65.18;;;7.60;99.90;;;;;;5021839;28;20045;-74
2023/11/21 06:00:22;;;;;;;278.75;69.07;;;7.60;99.90;;;;;;5027132;28;20076;-74
2023/11/21 06:02:57;;;;;;;257.05;64.95;;;7.60;99.90;;;;;;5032474;28;20049;-74
2023/11/21 06:05:26;;;;;;;249.82;66.45;;;7.70;99.90;;;;;;5026035;28;20045;-75
2023/11/21 06:07:58;;;;;;;257.85;64.20;;;7.70;99.90;;;;;;5021025;28;20438;-73
2023/11/21 06:10:25;;;;;;;284.00;67.78;;;7.70;99.90;;;;;;5026632;28;20132;-73
2023/11/21 06:12:53;;;;;;;272.42;67.65;;;7.70;99.90;;;;;;5015919;28;20132;-75
2023/11/21 06:15:22;;;;;;;271.85;66.28;;;7.70;99.90;;;;;;5027748;28;20061;-75
2023/11/21 06:17:52;;;;;;;287.13;69.65;;;7.70;99.90;;;;;;5024801;28;20120;-75
2023/11/21 06:20:20;;;;;;;368.98;74.15;;;7.70;99.90;;;;;;5025983;28;20038;-74
2023/11/21 06:22:50;;;;;;;341.55;74.03;;;7.80;99.90;;;;;;5027749;28;20033;-73
2023/11/21 06:25:17;;;;;;;438.70;79.53;;;7.80;99.90;;;;;;5023744;28;20040;-74
2023/11/21 06:27:45;;;;;;;371.08;77.50;;;7.70;99.90;;;;;;5027269;28;20052;-74
2023/11/21 06:30:13;;;;;;;354.13;73.90;;;7.60;99.90;;;;;;5027869;28;20056;-74
2023/11/21 06:32:45;;;;;;;342.52;76.65;;;7.60;99.90;;;;;;5023609;28;20048;-76
2023/11/21 06:35:13;;;;;;;313.00;72.00;;;7.60;99.90;;;;;;5010471;28;20049;-75
2023/11/21 06:37:40;;;;;;;281.98;69.63;;;7.60;99.90;;;;;;5028691;28;20045;-74
2023/11/21 06:40:09;;;;;;;373.63;76.50;;;7.60;99.90;;;;;;5026698;28;20046;-74
2023/11/21 06:42:38;;;;;;;319.08;72.65;;;7.60;99.90;;;;;;5025807;28;20049;-74
2023/11/21 06:45:05;;;;;;;346.25;76.35;;;7.70;99.90;;;;;;5026682;28;20123;-74
2023/11/21 06:47:32;;;;;;;330.08;74.45;;;7.80;99.90;;;;;;5025065;28;20053;-75
2023/11/21 06:50:00;;;;;;;306.40;73.80;;;7.80;99.90;;;;;;5023438;28;20049;-74
2023/11/21 06:52:27;;;;;;;283.10;76.38;;;7.80;99.90;;;;;;5013795;28;20549;-74
2023/11/21 06:54:55;;;;;;;312.90;73.75;;;7.80;99.90;;;;;;5023433;28;20163;-73
2023/11/21 06:57:23;;;;;;;318.88;75.00;;;7.90;99.90;;;;;;5022985;28;20040;-75
2023/11/21 06:59:50;;;;;;;314.60;79.00;;;7.90;99.90;;;;;;5025012;28;20045;-75
2023/11/21 07:02:20;;;;;;;327.38;79.60;;;7.80;99.90;;;;;;5019742;28;20130;-75
2023/11/21 07:04:47;;;;;;;312.52;78.60;;;7.80;99.90;;;;;;5018617;28;20121;-74
2023/11/21 07:07:14;;;;;;;362.55;81.80;;;7.80;99.90;;;;;;5026536;28;20261;-73
2023/11/21 07:09:41;;;;;;;353.08;78.13;;;7.80;99.90;;;;;;5026432;28;20118;-74
2023/11/21 07:12:08;;;;;;;435.75;83.95;;;7.80;99.90;;;;;;5026755;28;20048;-72
2023/11/21 07:14:35;;;;;;;505.02;93.28;;;7.90;99.90;;;;;;5021491;28;20052;-74
2023/11/21 07:17:02;;;;;;;536.85;91.45;;;7.90;99.90;;;;;;5023410;28;20140;-73
2023/11/21 07:19:29;;;;;;;553.25;93.68;;;7.90;99.90;;;;;;5028184;28;20060;-75
2023/11/21 07:21:56;;;;;;;653.78;102.68;;;7.90;99.90;;;;;;5022443;28;20079;-73
2023/11/21 07:24:23;;;;;;;495.33;86.93;;;7.90;99.90;;;;;;5025199;28;20196;-72
2023/11/21 07:26:56;;;;;;;520.53;89.95;;;7.90;99.90;;;;;;5010175;28;20136;-74
2023/11/21 07:29:29;;;;;;;490.27;91.90;;;7.90;99.90;;;;;;5020176;28;20511;-75
2023/11/21 07:31:56;;;;;;;508.02;92.00;;;8.00;99.90;;;;;;5023408;28;20045;-73
2023/11/21 07:34:23;;;;;;;573.40;92.70;;;7.90;99.90;;;;;;5009699;28;20053;-73
2023/11/21 07:36:50;;;;;;;495.33;91.82;;;7.90;99.90;;;;;;5022668;28;20132;-72
2023/11/21 07:39:16;;;;;;;467.08;90.03;;;8.00;99.90;;;;;;5023589;28;20114;-72
2023/11/21 07:41:48;;;;;;;460.50;93.95;;;8.00;99.90;;;;;;5023286;28;20041;-72
2023/11/21 07:44:19;;;;;;;472.58;95.57;;;8.00;99.90;;;;;;5029529;28;20220;-73
2023/11/21 07:46:49;;;;;;;397.98;90.68;;;8.00;99.90;;;;;;5016175;28;20041;-73
2023/11/21 07:49:20;;;;;;;382.83;90.25;;;7.90;99.90;;;;;;5028096;28;20140;-71
2023/11/21 07:51:47;;;;;;;364.15;87.57;;;7.90;99.90;;;;;;5019772;28;20118;-73
2023/11/21 07:54:14;;;;;;;382.85;89.85;;;7.90;99.90;;;;;;5026797;28;20044;-73
2023/11/21 07:56:40;;;;;;;392.20;89.30;;;7.90;99.90;;;;;;5025882;28;20114;-72
2023/11/21 07:59:08;;;;;;;404.60;92.47;;;7.90;99.90;;;;;;5027941;28;20056;-72
2023/11/21 08:01:35;;;;;;;411.13;94.60;;;7.90;99.90;;;;;;5020830;28;20045;-72
2023/11/21 08:04:03;;;;;;;490.67;99.78;;;7.90;99.90;;;;;;5022942;28;20457;-73
2023/11/21 08:06:31;;;;;;;448.48;100.57;;;7.90;99.90;;;;;;5040428;28;20123;-73
2023/11/21 08:08:58;;;;;;;488.15;102.40;;;7.90;99.90;;;;;;5026415;28;20052;-72
2023/11/21 08:11:29;;;;;;;518.67;111.55;;;7.90;99.90;;;;;;5022910;28;20044;-72
2023/11/21 08:13:55;;;;;;;526.22;113.65;;;7.90;99.90;;;;;;5010521;28;20045;-73
2023/11/21 08:16:23;;;;;;;405.95;100.22;;;8.00;99.90;;;;;;5024455;28;20585;-74
2023/11/21 08:18:51;;;;;;;567.85;115.40;;;8.00;99.90;;;;;;5026000;28;20118;-75
2023/11/21 08:21:18;;;;;;;475.83;106.85;;;8.00;99.90;;;;;;5024909;28;20337;-75
2023/11/21 08:23:47;;;;;;;360.73;106.43;;;8.00;99.90;;;;;;5022237;28;20056;-75
2023/11/21 08:26:16;;;;;;;375.27;106.32;;;7.90;99.90;;;;;;5025354;28;20049;-75
2023/11/21 08:28:47;;;;;;;373.25;104.70;;;7.80;99.90;;;;;;5023096;28;20126;-73
2023/11/21 08:31:14;;;;;;;305.08;94.55;;;7.80;99.90;;;;;;5033804;28;20080;-74
2023/11/21 08:33:42;;;;;;;257.73;91.40;;;7.80;99.90;;;;;;5020734;28;20507;-74
2023/11/21 08:36:12;;;;;;;281.08;91.72;;;7.90;99.90;;;;;;5022966;28;20116;-75
2023/11/21 08:38:40;;;;;;;249.43;86.18;;;7.90;99.90;;;;;;5009758;28;21240;-75
2023/11/21 08:41:08;;;;;;;238.80;84.22;;;8.00;99.90;;;;;;5020098;28;20099;-74
2023/11/21 08:43:41;;;;;;;215.48;76.65;;;8.10;99.90;;;;;;5021997;28;20689;-75
2023/11/21 08:46:08;;;;;;;175.20;70.00;;;8.10;99.90;;;;;;5026478;28;20040;-75
2023/11/21 08:48:43;;;;;;;149.82;64.68;;;8.10;99.90;;;;;;5027770;28;20053;-76
2023/11/21 08:51:14;;;;;;;169.13;67.10;;;8.10;99.90;;;;;;5026303;28;20038;-75
2023/11/21 08:53:41;;;;;;;163.02;68.05;;;8.10;99.90;;;;;;5024218;28;20076;-75
2023/11/21 08:56:11;;;;;;;133.75;61.50;;;8.20;99.90;;;;;;5023502;28;20037;-75
2023/11/21 08:58:39;;;;;;;129.57;63.72;;;8.20;99.90;;;;;;5022585;28;20131;-75
2023/11/21 09:01:07;;;;;;;127.63;63.00;;;8.20;99.90;;;;;;5024644;28;20053;-75
2023/11/21 09:03:33;;;;;;;110.10;60.30;;;8.20;99.90;;;;;;5024738;28;20553;-75
2023/11/21 09:06:00;;;;;;;111.35;59.22;;;8.10;99.90;;;;;;5022600;28;20053;-75
2023/11/21 09:08:29;;;;;;;97.65;57.72;;;8.10;99.90;;;;;;5025705;28;20051;-75
2023/11/21 09:10:57;;;;;;;111.88;60.13;;;8.10;99.90;;;;;;5011933;28;20084;-75
2023/11/21 09:13:25;;;;;;;98.88;58.75;;;8.10;99.90;;;;;;5026423;28;20046;-75
2023/11/21 09:15:52;;;;;;;108.35;61.85;;;8.20;99.90;;;;;;5013563;28;20119;-75
2023/11/21 09:18:19;;;;;;;97.60;57.58;;;8.20;99.90;;;;;;5026111;28;20160;-75
2023/11/21 09:20:46;;;;;;;94.13;55.95;;;8.20;99.90;;;;;;5025294;28;20585;-75
2023/11/21 09:23:13;;;;;;;98.63;59.15;;;8.10;99.90;;;;;;5012221;28;20156;-75
2023/11/21 09:25:39;;;;;;;90.05;57.50;;;8.10;99.90;;;;;;5024331;28;20045;-75
2023/11/21 09:28:09;;;;;;;102.22;57.90;;;8.10;99.90;;;;;;5028570;28;20064;-75
2023/11/21 09:30:36;;;;;;;84.45;54.90;;;8.10;99.90;;;;;;5023780;28;20078;-75
2023/11/21 09:33:06;;;;;;;87.38;54.75;;;8.10;99.90;;;;;;5025858;28;20439;-74
2023/11/21 09:35:33;;;;;;;81.45;55.40;;;8.00;99.90;;;;;;5024234;28;20065;-75
2023/11/21 09:38:03;;;;;;;87.15;55.40;;;8.00;99.90;;;;;;5024829;28;20084;-75
2023/11/21 09:40:37;;;;;;;90.43;58.85;;;8.00;99.90;;;;;;5024852;28;20126;-74
2023/11/21 09:43:15;;;;;;;89.68;54.97;;;7.90;99.90;;;;;;5023943;28;20050;-75
2023/11/21 09:45:47;;;;;;;88.72;53.22;;;8.00;99.90;;;;;;5020459;28;21296;-75
2023/11/21 09:48:16;;;;;;;83.40;52.75;;;8.00;99.90;;;;;;5027999;28;20080;-75
2023/11/21 09:50:44;;;;;;;89.95;54.67;;;7.90;99.90;;;;;;5017793;28;21234;-75
2023/11/21 09:53:20;;;;;;;98.60;56.60;;;7.90;99.90;;;;;;5022230;28;20041;-74
2023/11/21 09:55:52;;;;;;;90.65;55.47;;;7.80;99.90;;;;;;5010276;28;20422;-75
2023/11/21 09:58:24;;;;;;;94.13;56.90;;;7.90;99.90;;;;;;5025139;28;20495;-75
2023/11/21 10:00:59;;;;;;;98.35;56.50;;;7.90;99.90;;;;;;5028027;28;20041;-74
2023/11/21 10:03:26;;;;;;;88.75;53.45;;;8.00;99.90;;;;;;5012112;28;20049;-75
2023/11/21 10:05:56;;;;;;;90.07;52.55;;;7.90;99.90;;;;;;5028185;28;20044;-74
2023/11/21 10:08:24;;;;;;;99.68;56.25;;;7.90;99.90;;;;;;5029593;28;20130;-74
2023/11/21 10:10:54;;;;;;;96.32;56.25;;;7.90;99.90;;;;;;5006997;28;20045;-74
2023/11/21 10:13:21;;;;;;;98.60;58.63;;;7.80;99.90;;;;;;5013930;28;20119;-74
2023/11/21 10:15:52;;;;;;;109.82;58.38;;;7.80;99.90;;;;;;5012092;28;20036;-74
2023/11/21 10:18:25;;;;;;;121.40;58.08;;;7.80;99.90;;;;;;5025476;28;20236;-75
2023/11/21 10:20:52;;;;;;;122.82;59.53;;;7.80;99.90;;;;;;5027225;28;20124;-74
2023/11/21 10:23:22;;;;;;;148.45;65.88;;;7.90;99.90;;;;;;5027901;28;20056;-74
2023/11/21 10:25:59;;;;;;;144.38;69.22;;;7.90;99.90;;;;;;5023390;28;21631;-74
2023/11/21 10:28:37;;;;;;;171.75;71.43;;;7.90;99.90;;;;;;5030804;28;20674;-75
2023/11/21 10:31:07;;;;;;;134.40;63.75;;;7.90;99.90;;;;;;5027375;28;20158;-74
2023/11/21 10:33:34;;;;;;;126.95;62.95;;;8.00;99.90;;;;;;5024043;28;20037;-74
2023/11/21 10:36:02;;;;;;;145.63;65.38;;;8.00;99.90;;;;;;5030555;28;20032;-74
2023/11/21 10:38:42;;;;;;;123.43;60.15;;;8.00;99.90;;;;;;5026400;28;20832;-74
2023/11/21 10:41:15;;;;;;;111.78;60.92;;;8.10;99.90;;;;;;5017376;28;20051;-75
2023/11/21 10:43:43;;;;;;;99.13;57.83;;;8.10;99.90;;;;;;5015643;28;20049;-74
2023/11/21 10:46:11;;;;;;;110.25;60.40;;;8.10;99.90;;;;;;5022395;28;20411;-74
2023/11/21 10:48:38;;;;;;;110.15;58.97;;;8.00;99.90;;;;;;5020719;28;20053;-71
2023/11/21 10:51:09;;;;;;;119.30;61.45;;;8.10;99.90;;;;;;5020765;28;20068;-70
2023/11/21 10:53:42;;;;;;;120.40;57.92;;;8.10;99.90;;;;;;5020288;28;20041;-72
2023/11/21 10:56:19;;;;;;;128.23;61.22;;;8.10;99.90;;;;;;5021427;28;20049;-70
2023/11/21 10:58:46;;;;;;;119.63;61.40;;;8.10;99.90;;;;;;5024261;28;20044;-70
2023/11/21 11:01:17;;;;;;;101.10;57.08;;;8.00;99.90;;;;;;5019790;28;20044;-69
2023/11/21 11:03:44;;;;;;;108.75;57.50;;;8.10;99.90;;;;;;5027115;28;20044;-70
2023/11/21 11:06:13;;;;;;;106.90;57.95;;;7.90;99.90;;;;;;5013976;28;20045;-71
2023/11/21 11:08:41;;;;;;;101.70;54.33;;;7.90;99.90;;;;;;5030106;28;20049;-70
2023/11/21 11:11:09;;;;;;;91.72;54.97;;;7.90;99.90;;;;;;5029797;28;20048;-72
2023/11/21 11:13:38;;;;;;;94.40;50.65;;;8.00;99.90;;;;;;5025447;28;20051;-70
2023/11/21 11:16:07;;;;;;;87.63;50.40;;;8.00;99.90;;;;;;5023150;28;20048;-71
2023/11/21 11:18:34;;;;;;;75.05;45.78;;;8.00;99.90;;;;;;5027713;28;20084;-71
2023/11/21 11:21:20;;;;;;;75.75;44.92;;;8.10;99.90;;;;;;5029052;28;20041;-69
2023/11/21 11:24:17;;;;;;;69.10;41.08;;;8.10;99.90;;;;;;5023922;28;20041;-69
2023/11/21 11:27:18;;;;;;;57.80;36.42;;;8.10;99.90;;;;;;4976030;28;20075;-69
2023/11/21 11:29:45;;;;;;;55.70;35.40;;;8.20;99.90;;;;;;5012735;28;20629;-72
2023/11/21 11:32:30;;;;;;;42.15;29.80;;;8.20;99.90;;;;;;5026337;28;20040;-70
2023/11/21 11:35:10;;;;;;;44.22;31.55;;;8.20;99.90;;;;;;5029423;28;20049;-71
2023/11/21 11:37:37;;;;;;;53.45;31.42;;;8.20;99.90;;;;;;5022834;28;20659;-70
2023/11/21 11:40:06;;;;;;;56.58;30.35;;;8.10;99.90;;;;;;5023103;28;20057;-70
2023/11/21 11:42:33;;;;;;;54.53;28.67;;;8.00;99.90;;;;;;5028089;28;20663;-71
2023/11/21 11:45:00;;;;;;;60.95;28.80;;;8.00;99.90;;;;;;5027462;28;20629;-71
2023/11/21 11:47:32;;;;;;;53.03;28.33;;;7.90;99.90;;;;;;5028712;28;20058;-70
2023/11/21 11:50:17;;;;;;;60.70;27.67;;;7.90;99.90;;;;;;5031357;28;20052;-70
2023/11/21 11:52:51;;;;;;;137.18;32.15;;;7.80;99.90;;;;;;5027054;28;20566;-70
2023/11/21 11:55:21;;;;;;;137.90;31.23;;;7.80;99.90;;;;;;5022496;28;20076;-69
2023/11/21 11:57:52;;;;;;;115.07;29.80;;;7.70;99.90;;;;;;5012974;28;20801;-71
2023/11/21 12:00:28;;;;;;;204.52;32.78;;;7.60;99.90;;;;;;5013298;28;20893;-71
2023/11/21 12:02:58;;;;;;;46.30;19.55;;;7.40;99.90;;;;;;5029251;28;21423;-71
2023/11/21 12:05:27;;;;;;;52.05;18.73;;;7.30;99.90;;;;;;5022980;28;20049;-71
2023/11/21 12:07:57;;;;;;;65.65;22.75;;;7.20;99.90;;;;;;5023408;28;20072;-70
2023/11/21 12:10:29;;;;;;;139.43;32.65;;;7.30;99.90;;;;;;5025586;28;20107;-71
2023/11/21 12:12:58;;;;;;;159.65;35.22;;;7.30;99.90;;;;;;5025971;28;22579;-71
2023/11/21 12:15:25;;;;;;;142.30;31.00;;;7.30;99.90;;;;;;5005300;28;20045;-69
2023/11/21 12:17:52;;;;;;;144.80;25.52;;;7.30;99.90;;;;;;5025528;28;20041;-69
2023/11/21 12:20:21;;;;;;;53.20;22.20;;;7.20;99.90;;;;;;5022826;28;20055;-71
2023/11/21 12:22:53;;;;;;;157.38;28.50;;;7.20;99.90;;;;;;5022278;28;20053;-71
2023/11/21 12:25:24;;;;;;;76.72;22.55;;;7.10;99.90;;;;;;5022585;28;20124;-71
2023/11/21 12:27:52;;;;;;;61.75;21.90;;;7.20;99.90;;;;;;5020097;28;20055;-70
2023/11/21 12:30:21;;;;;;;23.38;17.95;;;7.10;99.90;;;;;;5010422;28;20425;-69
2023/11/21 12:32:53;;;;;;;17.50;13.32;;;7.00;99.90;;;;;;5020813;28;20140;-71
2023/11/21 12:35:24;;;;;;;18.73;14.45;;;7.00;99.90;;;;;;5028447;28;20163;-71
2023/11/21 12:37:52;;;;;;;20.17;14.20;;;7.00;99.90;;;;;;5028690;28;21422;-71